Aérodrome :







RETROUVEZ-NOUS SUR...

 
LOGIN :

S'inscrire | Disclaimer

   EN    FR    IT 

 









Légende :    VFR   VFR Marginal   IFR   IFR Intensif   IFR Très Intensif
Visi : 
Plafond : 
>= 8 km
>= 3000ft
5 à 8 km
1000 à 3000 ft
1500m à 5 km
500 à 1000 ft
800 à 1500m
200 à 500 ft
< 800m
< 200 ft
Symboles :   Orages  Brouillard  Fortes neiges  Fortes précipitations  Vent > 20 kt






- Altitude de l'aérodrome : 133 ft
- Code IATA : BED


KBED - Laurence G Hanscom Field

DERNIER METAR :
  • 280451Z AUTO 21006KT 10SM CLR 19/17 A3019 RMK AO2 SLP232 T01940167 403060167

METARs EXPIRÉS :
  • 280351Z AUTO 21007KT 10SM CLR 20/17 A3019 RMK AO2 SLP233 T02000167
  • 280251Z 20008KT 10SM CLR 21/17 A3018 RMK AO2 SLP231 T02110167 51013

TAF KBED
Valide du 28 à 00h jusqu'au 29 à 00h UTC


272322Z 2800/2824 21013KT P6SM SKC
FM280600 22004KT 6SM BR BKN020
FM280900 22003KT 3SM BR OVC008
FM281300 22010G20KT P6SM BKN025
FM282300 20009KT P6SM BKN040
FIR KZBW / Amérique du Nord



MET'MAP, la Météo Aéronautique d'un coup d'oeil ! - Copyright ORBIFLY Décembre 2007 - Disclaimer

ORBIFLY MET'MAP TEAM :

Programmation & Développement : Alexandra Zaïnal
Sur une idée originale de : Baudouin d'Aumeries
Assistance à la programmation : Marc-Olivier Méhu
Soutien technique & logistique : Manuel Goepfert

Contact : metmap@orbifly.com




SOURCES & CREDITS :

   NOAA